<?xml version="1.0" encoding="UTF-8" standalone="no" ?>
<gpx xmlns="http://www.topografix.com/GPX/1/1" xmlns:xsi="http://www.w3.org/2001/XMLSchema-instance" xsi:schemaLocation="http://www.topografix.com/GPX/1/1 http://www.topografix.com/GPX/1/1/gpx.xsd" version="1.1" creator="VisuGPX - https://www.visugpx.com">
  <metadata>
    <name>travaux Canal Neuf</name>
    <desc><![CDATA[Piste de Péas et chemin de Canal Neuf interdits à la circulation]]></desc>
  </metadata>
  <trk>
    <name><![CDATA[trace_RNIur]]></name>
    <extensions>
      <line xmlns="http://www.topografix.com/GPX/gpx_style/0/2">
        <color>0000FF</color>
        <width>4</width>
      </line>
    </extensions>
    <trkseg>
      <trkpt lat="44.77515" lon="6.76852">
        <ele>1827.4</ele>
        <time>2018-09-26T13:19:21Z</time>
      </trkpt>
      <trkpt lat="44.77541" lon="6.76831">
        <ele>1819.1</ele>
        <time>2018-09-26T13:20:02Z</time>
      </trkpt>
      <trkpt lat="44.77573" lon="6.76814">
        <ele>1823.4</ele>
        <time>2018-09-26T13:21:11Z</time>
      </trkpt>
      <trkpt lat="44.77581" lon="6.76798">
        <ele>1820.4</ele>
        <time>2018-09-26T13:23:04Z</time>
      </trkpt>
      <trkpt lat="44.77617" lon="6.76765">
        <ele>1830.7</ele>
        <time>2018-09-26T13:23:47Z</time>
      </trkpt>
      <trkpt lat="44.77614" lon="6.76714">
        <ele>1819.1</ele>
        <time>2018-09-26T13:24:39Z</time>
      </trkpt>
      <trkpt lat="44.77595" lon="6.7676">
        <ele>1824.9</ele>
        <time>2018-09-26T13:25:40Z</time>
      </trkpt>
      <trkpt lat="44.77586" lon="6.76759">
        <ele>1822.3</ele>
        <time>2018-09-26T13:26:02Z</time>
      </trkpt>
      <trkpt lat="44.77593" lon="6.76728">
        <ele>1818.2</ele>
        <time>2018-09-26T13:26:19Z</time>
      </trkpt>
      <trkpt lat="44.77598" lon="6.76664">
        <ele>1806.7</ele>
        <time>2018-09-26T12:57:20Z</time>
      </trkpt>
      <trkpt lat="44.77611" lon="6.76636">
        <ele>1807.7</ele>
        <time>2018-09-26T12:56:16Z</time>
      </trkpt>
      <trkpt lat="44.77642" lon="6.76634">
        <ele>1810.2</ele>
        <time>2018-09-26T12:55:54Z</time>
      </trkpt>
      <trkpt lat="44.77675" lon="6.7662">
        <ele>1818.2</ele>
        <time>2018-09-26T12:55:32Z</time>
      </trkpt>
      <trkpt lat="44.77636" lon="6.76569">
        <ele>1811.7</ele>
        <time>2018-09-26T12:54:58Z</time>
      </trkpt>
      <trkpt lat="44.77617" lon="6.76558">
        <ele>1811.1</ele>
        <time>2018-09-26T12:54:27Z</time>
      </trkpt>
      <trkpt lat="44.77612" lon="6.76517">
        <ele>1814.5</ele>
        <time>2018-09-26T12:53:56Z</time>
      </trkpt>
      <trkpt lat="44.77571" lon="6.76485">
        <ele>1824.6</ele>
        <time>2018-09-26T12:52:45Z</time>
      </trkpt>
      <trkpt lat="44.7753" lon="6.76505">
        <ele>1809.9</ele>
        <time>2018-09-26T12:52:23Z</time>
      </trkpt>
      <trkpt lat="44.77513" lon="6.76535">
        <ele>1807.6</ele>
        <time>2018-09-26T12:51:43Z</time>
      </trkpt>
      <trkpt lat="44.77478" lon="6.76549">
        <ele>1807.9</ele>
        <time>2018-09-26T12:51:25Z</time>
      </trkpt>
      <trkpt lat="44.77456" lon="6.7657">
        <ele>1806.7</ele>
        <time>2018-09-26T12:50:59Z</time>
      </trkpt>
      <trkpt lat="44.77421" lon="6.7657">
        <ele>1805.9</ele>
        <time>2018-09-26T12:50:22Z</time>
      </trkpt>
      <trkpt lat="44.77395" lon="6.76543">
        <ele>1808.3</ele>
        <time>2018-09-26T12:49:24Z</time>
      </trkpt>
      <trkpt lat="44.77355" lon="6.76473">
        <ele>1825.7</ele>
        <time>2018-09-26T12:48:30Z</time>
      </trkpt>
      <trkpt lat="44.77287" lon="6.76462">
        <ele>1824.1</ele>
        <time>2018-09-26T12:47:46Z</time>
      </trkpt>
      <trkpt lat="44.77225" lon="6.76463">
        <ele>1820.9</ele>
        <time>2018-09-26T12:47:18Z</time>
      </trkpt>
      <trkpt lat="44.77178" lon="6.76457">
        <ele>1821.6</ele>
        <time>2018-09-26T12:46:31Z</time>
      </trkpt>
      <trkpt lat="44.77155" lon="6.76473">
        <ele>1820.4</ele>
        <time>2018-09-26T12:45:55Z</time>
      </trkpt>
      <trkpt lat="44.77121" lon="6.76469">
        <ele>1824.7</ele>
        <time>2018-09-26T12:45:28Z</time>
      </trkpt>
      <trkpt lat="44.77093" lon="6.765">
        <ele>1820.3</ele>
        <time>2018-09-26T12:44:42Z</time>
      </trkpt>
      <trkpt lat="44.77058" lon="6.76511">
        <ele>1819.9</ele>
        <time>2018-09-26T12:43:49Z</time>
      </trkpt>
      <trkpt lat="44.76991" lon="6.76562">
        <ele>1829.4</ele>
        <time>2018-09-26T12:42:49Z</time>
      </trkpt>
      <trkpt lat="44.76957" lon="6.76604">
        <ele>1808.2</ele>
        <time>2018-09-26T12:41:42Z</time>
      </trkpt>
      <trkpt lat="44.76875" lon="6.7659">
        <ele>1826.7</ele>
        <time>2018-09-26T12:40:54Z</time>
      </trkpt>
      <trkpt lat="44.76852" lon="6.76592">
        <ele>1831.7</ele>
        <time>2018-09-26T12:39:57Z</time>
      </trkpt>
      <trkpt lat="44.76832" lon="6.76674">
        <ele>1820.4</ele>
        <time>2018-09-26T12:39:20Z</time>
      </trkpt>
      <trkpt lat="44.76798" lon="6.76735">
        <ele>1813.8</ele>
        <time>2018-09-26T12:38:31Z</time>
      </trkpt>
      <trkpt lat="44.76744" lon="6.76779">
        <ele>1807.2</ele>
        <time>2018-09-26T12:38:14Z</time>
      </trkpt>
      <trkpt lat="44.76693" lon="6.7679">
        <ele>1806.5</ele>
        <time>2018-09-26T12:37:42Z</time>
      </trkpt>
      <trkpt lat="44.76626" lon="6.76758">
        <ele>1815.6</ele>
        <time>2018-09-26T12:36:56Z</time>
      </trkpt>
      <trkpt lat="44.76578" lon="6.76748">
        <ele>1826.1</ele>
        <time>2018-09-26T12:36:27Z</time>
      </trkpt>
      <trkpt lat="44.76507" lon="6.76744">
        <ele>1829.4</ele>
        <time>2018-09-26T12:35:48Z</time>
      </trkpt>
      <trkpt lat="44.76426" lon="6.76785">
        <ele>1824.8</ele>
        <time>2018-09-26T12:35:23Z</time>
      </trkpt>
      <trkpt lat="44.76415" lon="6.76779">
        <ele>1832.4</ele>
        <time>2018-09-26T12:34:35Z</time>
      </trkpt>
      <trkpt lat="44.76431" lon="6.76759">
        <ele>1829.1</ele>
        <time>2018-09-26T12:33:08Z</time>
      </trkpt>
      <trkpt lat="44.76473" lon="6.76719">
        <ele>1839</ele>
        <time>2018-09-26T12:32:27Z</time>
      </trkpt>
      <trkpt lat="44.76474" lon="6.76706">
        <ele>1841.1</ele>
        <time>2018-09-26T12:31:51Z</time>
      </trkpt>
      <trkpt lat="44.76433" lon="6.76687">
        <ele>1844</ele>
        <time>2018-09-26T12:31:19Z</time>
      </trkpt>
      <trkpt lat="44.76406" lon="6.76668">
        <ele>1847.9</ele>
        <time>2018-09-26T12:30:32Z</time>
      </trkpt>
      <trkpt lat="44.76374" lon="6.76684">
        <ele>1847.2</ele>
        <time>2018-09-26T12:29:34Z</time>
      </trkpt>
      <trkpt lat="44.76334" lon="6.76685">
        <ele>1849.6</ele>
        <time>2018-09-26T12:27:45Z</time>
      </trkpt>
      <trkpt lat="44.76284" lon="6.76668">
        <ele>1848.4</ele>
        <time>2018-09-26T12:26:54Z</time>
      </trkpt>
      <trkpt lat="44.76269" lon="6.76703">
        <ele>1840</ele>
        <time>2018-09-26T12:26:32Z</time>
      </trkpt>
      <trkpt lat="44.76258" lon="6.76732">
        <ele>1840</ele>
        <time>2018-09-26T12:26:07Z</time>
      </trkpt>
      <trkpt lat="44.76246" lon="6.7676">
        <ele>1844</ele>
        <time>2018-09-26T12:25:16Z</time>
      </trkpt>
      <trkpt lat="44.76224" lon="6.76765">
        <ele>1841</ele>
        <time>2018-09-26T12:24:28Z</time>
      </trkpt>
      <trkpt lat="44.76178" lon="6.76752">
        <ele>1842</ele>
        <time>2018-09-26T12:23:46Z</time>
      </trkpt>
      <trkpt lat="44.76157" lon="6.76764">
        <ele>1842</ele>
        <time>2018-09-26T12:23:11Z</time>
      </trkpt>
      <trkpt lat="44.76133" lon="6.76763">
        <ele>1841</ele>
        <time>2018-09-26T12:21:54Z</time>
      </trkpt>
      <trkpt lat="44.7611" lon="6.76763">
        <ele>1843</ele>
        <time>2018-09-26T12:20:49Z</time>
      </trkpt>
      <trkpt lat="44.76088" lon="6.76775">
        <ele>1843</ele>
        <time>2018-09-26T12:19:57Z</time>
      </trkpt>
      <trkpt lat="44.76075" lon="6.7678">
        <ele>1858.7</ele>
        <time>2018-09-26T12:18:23Z</time>
      </trkpt>
      <trkpt lat="44.76065" lon="6.7683">
        <ele>1861.6</ele>
        <time>2018-09-26T12:17:49Z</time>
      </trkpt>
      <trkpt lat="44.76028" lon="6.76917">
        <ele>1862.2</ele>
        <time>2018-09-26T12:16:46Z</time>
      </trkpt>
      <trkpt lat="44.75992" lon="6.76978">
        <ele>1859.5</ele>
        <time>2018-09-26T12:16:22Z</time>
      </trkpt>
      <trkpt lat="44.7594" lon="6.76978">
        <ele>1859</ele>
        <time>2018-09-26T12:15:50Z</time>
      </trkpt>
      <trkpt lat="44.7588" lon="6.76998">
        <ele>1855.2</ele>
        <time>2018-09-26T12:15:23Z</time>
      </trkpt>
      <trkpt lat="44.75807" lon="6.77017">
        <ele>1835.4</ele>
        <time>2018-09-26T12:14:24Z</time>
      </trkpt>
      <trkpt lat="44.75813" lon="6.77027">
        <ele>1835</ele>
        <time>2018-09-26T12:13:53Z</time>
      </trkpt>
      <trkpt lat="44.75881" lon="6.77007">
        <ele>1850</ele>
        <time>2018-09-26T12:13:30Z</time>
      </trkpt>
      <trkpt lat="44.7594" lon="6.7699">
        <ele>1858.7</ele>
        <time>2018-09-26T12:12:56Z</time>
      </trkpt>
      <trkpt lat="44.75987" lon="6.7699">
        <ele>1859.3</ele>
        <time>2018-09-26T12:12:19Z</time>
      </trkpt>
      <trkpt lat="44.7599" lon="6.77068">
        <ele>1840</ele>
        <time>2018-09-26T12:11:30Z</time>
      </trkpt>
      <trkpt lat="44.76021" lon="6.77125">
        <ele>1831</ele>
        <time>2018-09-26T12:11:03Z</time>
      </trkpt>
      <trkpt lat="44.76033" lon="6.77154">
        <ele>1824</ele>
        <time>2018-09-26T12:10:23Z</time>
      </trkpt>
      <trkpt lat="44.76042" lon="6.77185">
        <ele>1818</ele>
        <time>2018-09-26T12:09:45Z</time>
      </trkpt>
      <trkpt lat="44.76061" lon="6.77205">
        <ele>1814</ele>
        <time>2018-09-26T12:08:42Z</time>
      </trkpt>
      <trkpt lat="44.76078" lon="6.77226">
        <ele>1809</ele>
        <time>2018-09-26T12:08:21Z</time>
      </trkpt>
      <trkpt lat="44.76082" lon="6.77258">
        <ele>1804</ele>
        <time>2018-09-26T12:07:57Z</time>
      </trkpt>
      <trkpt lat="44.76081" lon="6.77291">
        <ele>1801</ele>
        <time>2000-01-19T08:21:05Z</time>
      </trkpt>
      <trkpt lat="44.76078" lon="6.77323">
        <ele>1797</ele>
        <time>2000-01-19T08:21:16Z</time>
      </trkpt>
      <trkpt lat="44.7607" lon="6.77352">
        <ele>1790</ele>
        <time>2000-01-19T08:21:28Z</time>
      </trkpt>
      <trkpt lat="44.76044" lon="6.77405">
        <ele>1781</ele>
        <time>2000-01-19T08:21:36Z</time>
      </trkpt>
      <trkpt lat="44.76026" lon="6.77426">
        <ele>1778</ele>
        <time>2000-01-19T08:21:42Z</time>
      </trkpt>
      <trkpt lat="44.76018" lon="6.77457">
        <ele>1775</ele>
        <time>2000-01-19T08:21:52Z</time>
      </trkpt>
      <trkpt lat="44.75997" lon="6.77514">
        <ele>1769</ele>
        <time>2000-01-19T08:22:02Z</time>
      </trkpt>
      <trkpt lat="44.75988" lon="6.77576">
        <ele>1759</ele>
        <time>2000-01-19T08:22:09Z</time>
      </trkpt>
      <trkpt lat="44.75973" lon="6.77639">
        <ele>1748</ele>
        <time>2000-01-19T08:22:12Z</time>
      </trkpt>
      <trkpt lat="44.75956" lon="6.7766">
        <ele>1740</ele>
        <time>2000-01-19T08:22:16Z</time>
      </trkpt>
      <trkpt lat="44.75934" lon="6.77669">
        <ele>1734</ele>
        <time>2000-01-19T08:22:19Z</time>
      </trkpt>
      <trkpt lat="44.75921" lon="6.77695">
        <ele>1725</ele>
        <time>2000-01-19T08:22:26Z</time>
      </trkpt>
      <trkpt lat="44.7593" lon="6.77725">
        <ele>1718</ele>
        <time>2000-01-19T08:22:38Z</time>
      </trkpt>
      <trkpt lat="44.75937" lon="6.77756">
        <ele>1716</ele>
        <time>2000-01-19T08:22:39Z</time>
      </trkpt>
      <trkpt lat="44.75955" lon="6.77816">
        <ele>1709</ele>
        <time>2000-01-19T08:22:46Z</time>
      </trkpt>
      <trkpt lat="44.75974" lon="6.77874">
        <ele>1702</ele>
        <time>2000-01-19T08:22:49Z</time>
      </trkpt>
      <trkpt lat="44.75972" lon="6.77907">
        <ele>1696</ele>
        <time>2000-01-19T08:23:10Z</time>
      </trkpt>
      <trkpt lat="44.75951" lon="6.77922">
        <ele>1689</ele>
        <time>2000-01-19T08:24:22Z</time>
      </trkpt>
      <trkpt lat="44.75931" lon="6.77939">
        <ele>1674</ele>
        <time>2000-01-19T08:24:39Z</time>
      </trkpt>
      <trkpt lat="44.75926" lon="6.77972">
        <ele>1666</ele>
        <time>2000-01-19T08:24:57Z</time>
      </trkpt>
      <trkpt lat="44.75939" lon="6.77997">
        <ele>1658</ele>
        <time>2000-01-19T08:25:12Z</time>
      </trkpt>
      <trkpt lat="44.75945" lon="6.78061">
        <ele>1649</ele>
        <time>2000-01-19T08:25:38Z</time>
      </trkpt>
      <trkpt lat="44.75935" lon="6.7809">
        <ele>1644</ele>
        <time>2000-01-19T08:26:06Z</time>
      </trkpt>
      <trkpt lat="44.75931" lon="6.78123">
        <ele>1641</ele>
        <time>2000-01-19T08:26:29Z</time>
      </trkpt>
      <trkpt lat="44.75904" lon="6.78176">
        <ele>1634</ele>
        <time>2000-01-19T08:26:53Z</time>
      </trkpt>
      <trkpt lat="44.75896" lon="6.78205">
        <ele>1629</ele>
        <time>2000-01-19T08:27:28Z</time>
      </trkpt>
      <trkpt lat="44.75898" lon="6.78237">
        <ele>1623</ele>
        <time>2000-01-19T08:28:01Z</time>
      </trkpt>
      <trkpt lat="44.75912" lon="6.78263">
        <ele>1617</ele>
        <time>2000-01-19T08:28:14Z</time>
      </trkpt>
      <trkpt lat="44.75926" lon="6.78288">
        <ele>1607</ele>
        <time>2000-01-19T08:30:39Z</time>
      </trkpt>
      <trkpt lat="44.75921" lon="6.78319">
        <ele>1593</ele>
        <time>2000-01-19T08:30:42Z</time>
      </trkpt>
      <trkpt lat="44.75911" lon="6.78348">
        <ele>1585</ele>
        <time>2000-01-19T08:30:56Z</time>
      </trkpt>
      <trkpt lat="44.7589" lon="6.78363">
        <ele>1579</ele>
        <time>2000-01-19T08:31:09Z</time>
      </trkpt>
      <trkpt lat="44.75868" lon="6.7837">
        <ele>1574</ele>
        <time>2000-01-19T08:31:23Z</time>
      </trkpt>
      <trkpt lat="44.75846" lon="6.78362">
        <ele>1567</ele>
        <time>2000-01-19T08:31:24Z</time>
      </trkpt>
      <trkpt lat="44.75825" lon="6.78377">
        <ele>1559</ele>
        <time>2000-01-19T08:31:26Z</time>
      </trkpt>
      <trkpt lat="44.75805" lon="6.78396">
        <ele>1549</ele>
        <time>2000-01-19T08:49:04Z</time>
      </trkpt>
      <trkpt lat="44.75804" lon="6.78428">
        <ele>1540</ele>
        <time>2000-01-19T08:49:04Z</time>
      </trkpt>
      <trkpt lat="44.75795" lon="6.78457">
        <ele>1536</ele>
        <time>2000-01-19T08:49:24Z</time>
      </trkpt>
      <trkpt lat="44.75793" lon="6.78489">
        <ele>1532</ele>
        <time>2000-01-19T08:49:29Z</time>
      </trkpt>
      <trkpt lat="44.75779" lon="6.78515">
        <ele>1523</ele>
        <time>2000-01-19T08:49:32Z</time>
      </trkpt>
      <trkpt lat="44.75779" lon="6.78548">
        <ele>1514</ele>
        <time>2000-01-19T08:49:42Z</time>
      </trkpt>
      <trkpt lat="44.75761" lon="6.78566">
        <ele>1510</ele>
        <time>2000-01-19T08:49:58Z</time>
      </trkpt>
      <trkpt lat="44.75741" lon="6.78551">
        <ele>1504</ele>
        <time>2000-01-19T08:50:08Z</time>
      </trkpt>
      <trkpt lat="44.75718" lon="6.78547">
        <ele>1490</ele>
        <time>2000-01-19T08:50:21Z</time>
      </trkpt>
      <trkpt lat="44.75713" lon="6.78578">
        <ele>1479</ele>
        <time>2000-01-19T08:50:33Z</time>
      </trkpt>
      <trkpt lat="44.75712" lon="6.7861">
        <ele>1469</ele>
        <time>2000-01-19T08:50:44Z</time>
      </trkpt>
      <trkpt lat="44.75716" lon="6.78642">
        <ele>1453</ele>
        <time>2000-01-19T08:50:59Z</time>
      </trkpt>
      <trkpt lat="44.75726" lon="6.78671">
        <ele>1447</ele>
        <time>2000-01-19T08:51:13Z</time>
      </trkpt>
      <trkpt lat="44.75714" lon="6.78698">
        <ele>1441</ele>
        <time>2000-01-19T08:51:19Z</time>
      </trkpt>
      <trkpt lat="44.75696" lon="6.78719">
        <ele>1438</ele>
        <time>2000-01-19T08:51:21Z</time>
      </trkpt>
      <trkpt lat="44.75674" lon="6.78721">
        <ele>1432</ele>
        <time>2000-01-19T08:51:27Z</time>
      </trkpt>
      <trkpt lat="44.75652" lon="6.78711">
        <ele>1426</ele>
        <time>2000-01-19T08:51:34Z</time>
      </trkpt>
      <trkpt lat="44.75622" lon="6.78662">
        <ele>1414</ele>
        <time>2000-01-19T08:51:43Z</time>
      </trkpt>
      <trkpt lat="44.75613" lon="6.78632">
        <ele>1408</ele>
        <time>2000-01-19T08:51:46Z</time>
      </trkpt>
      <trkpt lat="44.75622" lon="6.78602">
        <ele>1407</ele>
        <time>2000-01-19T08:52:00Z</time>
      </trkpt>
      <trkpt lat="44.75616" lon="6.78571">
        <ele>1403</ele>
        <time>2000-01-19T08:52:11Z</time>
      </trkpt>
      <trkpt lat="44.75601" lon="6.78547">
        <ele>1395</ele>
        <time>2000-01-19T08:52:15Z</time>
      </trkpt>
      <trkpt lat="44.75587" lon="6.78521">
        <ele>1391</ele>
        <time>2000-01-19T08:52:17Z</time>
      </trkpt>
      <trkpt lat="44.75586" lon="6.78552">
        <ele>1385</ele>
        <time>2000-01-19T08:52:33Z</time>
      </trkpt>
      <trkpt lat="44.75573" lon="6.7858">
        <ele>1381</ele>
        <time>2000-01-19T08:52:36Z</time>
      </trkpt>
      <trkpt lat="44.75583" lon="6.78608">
        <ele>1373</ele>
        <time>2000-01-19T08:52:53Z</time>
      </trkpt>
      <trkpt lat="44.75552" lon="6.78611">
        <ele>1373</ele>
        <time>2000-01-19T08:53:07Z</time>
      </trkpt>
      <trkpt lat="44.75551" lon="6.78644">
        <ele>1373</ele>
        <time>2000-01-19T08:53:10Z</time>
      </trkpt>
      <trkpt lat="44.75541" lon="6.78673">
        <ele>1367</ele>
        <time>2000-01-19T08:53:25Z</time>
      </trkpt>
      <trkpt lat="44.75547" lon="6.78696">
        <ele>1374.9</ele>
        <time>2000-01-19T08:53:41Z</time>
      </trkpt>
      <trkpt lat="44.75542" lon="6.78704">
        <ele>1373.1</ele>
        <time>2000-01-19T08:53:59Z</time>
      </trkpt>
      <trkpt lat="44.75562" lon="6.78751">
        <ele>1373.6</ele>
        <time>2000-01-19T08:54:40Z</time>
      </trkpt>
      <trkpt lat="44.75521" lon="6.78663">
        <ele>1368.5</ele>
        <time>2000-01-19T08:55:22Z</time>
      </trkpt>
      <trkpt lat="44.75519" lon="6.78648">
        <ele>1369.7</ele>
        <time>2000-01-19T08:55:48Z</time>
      </trkpt>
      <trkpt lat="44.75527" lon="6.78563">
        <ele>1372.4</ele>
        <time>2000-01-19T08:56:15Z</time>
      </trkpt>
      <trkpt lat="44.75522" lon="6.78514">
        <ele>1370</ele>
        <time>2000-01-19T08:58:05Z</time>
      </trkpt>
      <trkpt lat="44.75511" lon="6.78459">
        <ele>1376.3</ele>
        <time>2000-01-19T08:58:13Z</time>
      </trkpt>
      <trkpt lat="44.75501" lon="6.78433">
        <ele>1369.7</ele>
        <time>2000-01-19T08:58:17Z</time>
      </trkpt>
      <trkpt lat="44.75499" lon="6.78496">
        <ele>1350.6</ele>
        <time>2000-01-19T08:58:33Z</time>
      </trkpt>
      <trkpt lat="44.75495" lon="6.78508">
        <ele>1349.3</ele>
        <time>2000-01-19T08:58:38Z</time>
      </trkpt>
      <trkpt lat="44.75483" lon="6.78513">
        <ele>1346.9</ele>
        <time>2000-01-19T08:58:52Z</time>
      </trkpt>
      <trkpt lat="44.75455" lon="6.78513">
        <ele>1342.7</ele>
        <time>2000-01-19T08:59:07Z</time>
      </trkpt>
      <trkpt lat="44.75409" lon="6.78527">
        <ele>1341.1</ele>
        <time>2000-01-19T08:59:18Z</time>
      </trkpt>
      <trkpt lat="44.75386" lon="6.78537">
        <ele>1344.1</ele>
        <time>2000-01-19T08:59:25Z</time>
      </trkpt>
      <trkpt lat="44.75378" lon="6.7855">
        <ele>1345.6</ele>
        <time>2000-01-19T08:59:34Z</time>
      </trkpt>
      <trkpt lat="44.75375" lon="6.78567">
        <ele>1346.4</ele>
        <time>2000-01-19T08:59:51Z</time>
      </trkpt>
      <trkpt lat="44.75396" lon="6.78657">
        <ele>1349.8</ele>
        <time>2000-01-19T09:00:02Z</time>
      </trkpt>
      <trkpt lat="44.75397" lon="6.78702">
        <ele>1360.1</ele>
        <time>2000-01-19T09:00:16Z</time>
      </trkpt>
      <trkpt lat="44.75403" lon="6.78716">
        <ele>1360.7</ele>
        <time>2000-01-19T09:00:36Z</time>
      </trkpt>
      <trkpt lat="44.7542" lon="6.78744">
        <ele>1353.9</ele>
        <time>2000-01-19T09:00:37Z</time>
      </trkpt>
      <trkpt lat="44.75417" lon="6.78763">
        <ele>1362.6</ele>
        <time>2000-01-19T09:00:51Z</time>
      </trkpt>
      <trkpt lat="44.75408" lon="6.78772">
        <ele>1366.7</ele>
        <time>2000-01-19T09:01:03Z</time>
      </trkpt>
      <trkpt lat="44.75396" lon="6.78773">
        <ele>1369.3</ele>
        <time>2000-01-19T09:01:22Z</time>
      </trkpt>
      <trkpt lat="44.75405" lon="6.78801">
        <ele>1370.2</ele>
        <time>2000-01-19T09:01:33Z</time>
      </trkpt>
      <trkpt lat="44.75444" lon="6.78848">
        <ele>1365.1</ele>
        <time>2000-01-19T09:01:48Z</time>
      </trkpt>
      <trkpt lat="44.75452" lon="6.78864">
        <ele>1365.7</ele>
        <time>2000-01-19T09:02:03Z</time>
      </trkpt>
      <trkpt lat="44.75456" lon="6.78888">
        <ele>1366.8</ele>
        <time>2000-01-19T09:02:28Z</time>
      </trkpt>
      <trkpt lat="44.75455" lon="6.78904">
        <ele>1367.3</ele>
        <time>2000-01-19T09:02:30Z</time>
      </trkpt>
      <trkpt lat="44.75418" lon="6.78984">
        <ele>1366.8</ele>
        <time>2000-01-19T09:02:43Z</time>
      </trkpt>
      <trkpt lat="44.75416" lon="6.79009">
        <ele>1369.8</ele>
        <time>2000-01-19T09:03:34Z</time>
      </trkpt>
      <trkpt lat="44.7542" lon="6.79035">
        <ele>1367.9</ele>
        <time>2000-01-19T09:03:55Z</time>
      </trkpt>
      <trkpt lat="44.75425" lon="6.79053">
        <ele>1368.5</ele>
        <time>2000-01-19T09:04:11Z</time>
      </trkpt>
      <trkpt lat="44.75447" lon="6.79096">
        <ele>1372.2</ele>
        <time>2000-01-19T09:04:30Z</time>
      </trkpt>
      <trkpt lat="44.75471" lon="6.79135">
        <ele>1372.9</ele>
        <time>2000-01-19T09:04:55Z</time>
      </trkpt>
      <trkpt lat="44.75488" lon="6.79147">
        <ele>1371.8</ele>
        <time>2000-01-19T09:05:06Z</time>
      </trkpt>
      <trkpt lat="44.75529" lon="6.79166">
        <ele>1368.1</ele>
        <time>2000-01-19T09:05:19Z</time>
      </trkpt>
      <trkpt lat="44.75544" lon="6.7918">
        <ele>1361.3</ele>
        <time>2000-01-19T09:05:35Z</time>
      </trkpt>
      <trkpt lat="44.75561" lon="6.79216">
        <ele>1358.4</ele>
        <time>2000-01-19T09:05:36Z</time>
      </trkpt>
      <trkpt lat="44.7557" lon="6.79236">
        <ele>1354.5</ele>
        <time>2000-01-19T09:05:39Z</time>
      </trkpt>
      <trkpt lat="44.75608" lon="6.79214">
        <ele>1343.9</ele>
      </trkpt>
      <trkpt lat="44.7563" lon="6.7921">
        <ele>1348.7</ele>
      </trkpt>
      <trkpt lat="44.75671" lon="6.79169">
        <ele>1362.8</ele>
      </trkpt>
      <trkpt lat="44.75654" lon="6.7915">
        <ele>1367.3</ele>
      </trkpt>
      <trkpt lat="44.75648" lon="6.7901">
        <ele>1387.5</ele>
      </trkpt>
      <trkpt lat="44.75675" lon="6.79018">
        <ele>1387.3</ele>
      </trkpt>
      <trkpt lat="44.75753" lon="6.79145">
        <ele>1394.4</ele>
      </trkpt>
      <trkpt lat="44.75778" lon="6.79211">
        <ele>1391</ele>
      </trkpt>
      <trkpt lat="44.75785" lon="6.79214">
        <ele>1396</ele>
      </trkpt>
      <trkpt lat="44.75812" lon="6.79246">
        <ele>1406.4</ele>
      </trkpt>
      <trkpt lat="44.75839" lon="6.79315">
        <ele>1406.3</ele>
      </trkpt>
      <trkpt lat="44.75862" lon="6.79348">
        <ele>1411.9</ele>
      </trkpt>
      <trkpt lat="44.75897" lon="6.79425">
        <ele>1412.5</ele>
      </trkpt>
      <trkpt lat="44.7597" lon="6.79559">
        <ele>1426.9</ele>
      </trkpt>
      <trkpt lat="44.75974" lon="6.79586">
        <ele>1426.7</ele>
      </trkpt>
      <trkpt lat="44.75975" lon="6.7964">
        <ele>1422.1</ele>
      </trkpt>
      <trkpt lat="44.75986" lon="6.79667">
        <ele>1422.3</ele>
      </trkpt>
      <trkpt lat="44.76008" lon="6.7968">
        <ele>1428.8</ele>
      </trkpt>
      <trkpt lat="44.76054" lon="6.79688">
        <ele>1446.5</ele>
      </trkpt>
      <trkpt lat="44.7606" lon="6.797">
        <ele>1447.1</ele>
      </trkpt>
      <trkpt lat="44.76065" lon="6.79707">
        <ele>1448.3</ele>
      </trkpt>
      <trkpt lat="44.76075" lon="6.79711">
        <ele>1451</ele>
        <time>2023-07-31T10:09:46Z</time>
      </trkpt>
      <trkpt lat="44.76098" lon="6.79708">
        <ele>1470</ele>
        <time>2023-07-31T10:09:00Z</time>
      </trkpt>
      <trkpt lat="44.76115" lon="6.79742">
        <ele>1470.1</ele>
      </trkpt>
      <trkpt lat="44.7612" lon="6.7975">
        <ele>1477</ele>
        <time>2023-07-31T10:02:08Z</time>
      </trkpt>
      <trkpt lat="44.76139" lon="6.79769">
        <ele>1484</ele>
        <time>2023-07-31T10:01:28Z</time>
      </trkpt>
      <trkpt lat="44.76153" lon="6.79793">
        <ele>1486</ele>
        <time>2023-07-31T10:01:10Z</time>
      </trkpt>
      <trkpt lat="44.76167" lon="6.7982">
        <ele>1491</ele>
        <time>2023-07-31T10:00:46Z</time>
      </trkpt>
      <trkpt lat="44.76167" lon="6.79851">
        <ele>1491</ele>
        <time>2023-07-31T10:00:17Z</time>
      </trkpt>
      <trkpt lat="44.76167" lon="6.79883">
        <ele>1507</ele>
        <time>2023-07-31T10:00:00Z</time>
      </trkpt>
      <trkpt lat="44.76176" lon="6.79913">
        <ele>1510</ele>
        <time>2023-07-31T09:59:45Z</time>
      </trkpt>
      <trkpt lat="44.76197" lon="6.79972">
        <ele>1516</ele>
        <time>2023-07-31T09:59:01Z</time>
      </trkpt>
      <trkpt lat="44.76206" lon="6.80001">
        <ele>1521</ele>
        <time>2023-07-31T09:58:45Z</time>
      </trkpt>
      <trkpt lat="44.7623" lon="6.80059">
        <ele>1527</ele>
        <time>2023-07-31T09:58:12Z</time>
      </trkpt>
      <trkpt lat="44.76236" lon="6.80088">
        <ele>1529.8</ele>
        <time>2023-07-31T09:57:52Z</time>
      </trkpt>
      <trkpt lat="44.7624" lon="6.80133">
        <ele>1532.7</ele>
        <time>2023-07-31T09:57:36Z</time>
      </trkpt>
      <trkpt lat="44.76238" lon="6.80161">
        <ele>1532</ele>
        <time>2023-07-31T09:57:21Z</time>
      </trkpt>
      <trkpt lat="44.76249" lon="6.8021">
        <ele>1539.6</ele>
        <time>2023-07-31T09:56:49Z</time>
      </trkpt>
      <trkpt lat="44.76232" lon="6.80244">
        <ele>1546</ele>
        <time>2023-07-31T09:56:32Z</time>
      </trkpt>
      <trkpt lat="44.76237" lon="6.80276">
        <ele>1547</ele>
        <time>2023-07-31T09:56:14Z</time>
      </trkpt>
      <trkpt lat="44.76248" lon="6.80248">
        <ele>1551</ele>
        <time>2023-07-31T09:55:41Z</time>
      </trkpt>
      <trkpt lat="44.76271" lon="6.80239">
        <ele>1552</ele>
        <time>2023-07-31T09:54:29Z</time>
      </trkpt>
      <trkpt lat="44.76277" lon="6.80208">
        <ele>1557</ele>
        <time>2023-07-31T09:54:14Z</time>
      </trkpt>
      <trkpt lat="44.76286" lon="6.80179">
        <ele>1562</ele>
        <time>2023-07-31T09:53:48Z</time>
      </trkpt>
      <trkpt lat="44.76314" lon="6.8023">
        <ele>1569</ele>
        <time>2023-07-31T09:53:19Z</time>
      </trkpt>
      <trkpt lat="44.7632" lon="6.80261">
        <ele>1573</ele>
        <time>2023-07-31T09:52:58Z</time>
      </trkpt>
      <trkpt lat="44.76326" lon="6.80292">
        <ele>1576</ele>
        <time>2023-07-31T09:52:08Z</time>
      </trkpt>
      <trkpt lat="44.76337" lon="6.80268">
        <ele>1577.6</ele>
      </trkpt>
      <trkpt lat="44.76338" lon="6.80299">
        <ele>1580.1</ele>
      </trkpt>
      <trkpt lat="44.76349" lon="6.8034">
        <ele>1583.5</ele>
      </trkpt>
      <trkpt lat="44.76391" lon="6.80423">
        <ele>1589.1</ele>
      </trkpt>
      <trkpt lat="44.76394" lon="6.80421">
        <ele>1590.6</ele>
      </trkpt>
      <trkpt lat="44.76394" lon="6.80401">
        <ele>1593.3</ele>
      </trkpt>
      <trkpt lat="44.76402" lon="6.80366">
        <ele>1602.5</ele>
      </trkpt>
      <trkpt lat="44.76394" lon="6.80315">
        <ele>1603</ele>
      </trkpt>
      <trkpt lat="44.76396" lon="6.80294">
        <ele>1604.7</ele>
      </trkpt>
      <trkpt lat="44.76406" lon="6.80327">
        <ele>1608.5</ele>
      </trkpt>
      <trkpt lat="44.76448" lon="6.80388">
        <ele>1618.8</ele>
      </trkpt>
      <trkpt lat="44.76464" lon="6.80451">
        <ele>1618.1</ele>
      </trkpt>
      <trkpt lat="44.76503" lon="6.80546">
        <ele>1637.8</ele>
      </trkpt>
      <trkpt lat="44.76502" lon="6.8061">
        <ele>1642.6</ele>
      </trkpt>
      <trkpt lat="44.76548" lon="6.80736">
        <ele>1649.5</ele>
      </trkpt>
      <trkpt lat="44.76548" lon="6.80707">
        <ele>1655.1</ele>
      </trkpt>
      <trkpt lat="44.76569" lon="6.80576">
        <ele>1669.7</ele>
      </trkpt>
      <trkpt lat="44.7657" lon="6.8055">
        <ele>1669.7</ele>
      </trkpt>
      <trkpt lat="44.76589" lon="6.8047">
        <ele>1673.5</ele>
      </trkpt>
      <trkpt lat="44.76599" lon="6.80453">
        <ele>1677.6</ele>
      </trkpt>
      <trkpt lat="44.76596" lon="6.80386">
        <ele>1677.5</ele>
      </trkpt>
      <trkpt lat="44.76628" lon="6.80481">
        <ele>1690.7</ele>
      </trkpt>
      <trkpt lat="44.76618" lon="6.80533">
        <ele>1688.6</ele>
      </trkpt>
      <trkpt lat="44.76621" lon="6.80552">
        <ele>1690.8</ele>
      </trkpt>
      <trkpt lat="44.76639" lon="6.8057">
        <ele>1697.4</ele>
      </trkpt>
      <trkpt lat="44.76651" lon="6.80593">
        <ele>1701.4</ele>
      </trkpt>
      <trkpt lat="44.76667" lon="6.80585">
        <ele>1707.1</ele>
      </trkpt>
      <trkpt lat="44.76678" lon="6.80708">
        <ele>1707.8</ele>
      </trkpt>
    </trkseg>
  </trk>
</gpx>